sensor_id;sensor_type;location;lat;lon;timestamp;temperature;humidity
5775;DHT22;2913;51.120;6.772;2023-07-02T00:01:50;18.00;99.90
5775;DHT22;2913;51.120;6.772;2023-07-02T00:04:16;18.00;99.90
5775;DHT22;2913;51.120;6.772;2023-07-02T00:06:48;18.00;99.90
5775;DHT22;2913;51.120;6.772;2023-07-02T00:09:16;18.00;99.90
5775;DHT22;2913;51.120;6.772;2023-07-02T00:11:45;18.00;99.90
5775;DHT22;2913;51.120;6.772;2023-07-02T00:14:12;17.90;99.90
5775;DHT22;2913;51.120;6.772;2023-07-02T00:16:43;18.00;99.90
5775;DHT22;2913;51.120;6.772;2023-07-02T00:19:15;17.90;99.90
5775;DHT22;2913;51.120;6.772;2023-07-02T00:21:43;17.90;99.90
5775;DHT22;2913;51.120;6.772;2023-07-02T00:24:15;17.90;99.90
5775;DHT22;2913;51.120;6.772;2023-07-02T00:26:43;17.90;99.90
5775;DHT22;2913;51.120;6.772;2023-07-02T00:29:09;17.80;99.90
5775;DHT22;2913;51.120;6.772;2023-07-02T00:31:35;17.80;99.90
5775;DHT22;2913;51.120;6.772;2023-07-02T00:34:01;17.80;99.90
5775;DHT22;2913;51.120;6.772;2023-07-02T00:36:30;17.80;99.90
5775;DHT22;2913;51.120;6.772;2023-07-02T00:38:56;17.80;99.90
5775;DHT22;2913;51.120;6.772;2023-07-02T00:41:22;17.60;99.90
5775;DHT22;2913;51.120;6.772;2023-07-02T00:43:47;17.60;99.90
5775;DHT22;2913;51.120;6.772;2023-07-02T00:46:17;17.70;99.90
5775;DHT22;2913;51.120;6.772;2023-07-02T00:48:48;17.70;99.90
5775;DHT22;2913;51.120;6.772;2023-07-02T00:51:19;17.60;99.90
5775;DHT22;2913;51.120;6.772;2023-07-02T00:53:49;17.60;99.90
5775;DHT22;2913;51.120;6.772;2023-07-02T00:56:18;17.60;99.90
5775;DHT22;2913;51.120;6.772;2023-07-02T00:58:48;17.60;99.90
5775;DHT22;2913;51.120;6.772;2023-07-02T01:01:17;17.60;99.90
5775;DHT22;2913;51.120;6.772;2023-07-02T01:04:00;17.60;99.90
5775;DHT22;2913;51.120;6.772;2023-07-02T01:06:27;17.60;99.90
5775;DHT22;2913;51.120;6.772;2023-07-02T01:08:58;17.60;99.90
5775;DHT22;2913;51.120;6.772;2023-07-02T01:11:32;17.50;99.90
5775;DHT22;2913;51.120;6.772;2023-07-02T01:14:07;17.60;99.90
5775;DHT22;2913;51.120;6.772;2023-07-02T01:16:34;17.50;99.90
5775;DHT22;2913;51.120;6.772;2023-07-02T01:19:04;17.50;99.90
5775;DHT22;2913;51.120;6.772;2023-07-02T01:21:32;17.50;99.90
5775;DHT22;2913;51.120;6.772;2023-07-02T01:23:59;17.50;99.90
5775;DHT22;2913;51.120;6.772;2023-07-02T01:26:31;17.50;99.90
5775;DHT22;2913;51.120;6.772;2023-07-02T01:29:17;17.40;99.90
5775;DHT22;2913;51.120;6.772;2023-07-02T01:31:44;17.40;99.90
5775;DHT22;2913;51.120;6.772;2023-07-02T01:34:10;17.40;99.90
5775;DHT22;2913;51.120;6.772;2023-07-02T01:36:36;17.40;99.90
5775;DHT22;2913;51.120;6.772;2023-07-02T01:39:03;17.30;99.90
5775;DHT22;2913;51.120;6.772;2023-07-02T01:41:55;17.30;99.90
5775;DHT22;2913;51.120;6.772;2023-07-02T01:44:22;17.30;99.90
5775;DHT22;2913;51.120;6.772;2023-07-02T01:46:51;17.30;99.90
5775;DHT22;2913;51.120;6.772;2023-07-02T01:49:18;17.30;99.90
5775;DHT22;2913;51.120;6.772;2023-07-02T01:51:55;17.30;99.90
5775;DHT22;2913;51.120;6.772;2023-07-02T01:54:26;17.30;99.90
5775;DHT22;2913;51.120;6.772;2023-07-02T01:56:55;17.30;99.90
5775;DHT22;2913;51.120;6.772;2023-07-02T01:59:21;17.20;99.90
5775;DHT22;2913;51.120;6.772;2023-07-02T02:01:46;17.10;99.90
5775;DHT22;2913;51.120;6.772;2023-07-02T02:04:12;17.10;99.90
5775;DHT22;2913;51.120;6.772;2023-07-02T02:06:39;17.10;99.90
5775;DHT22;2913;51.120;6.772;2023-07-02T02:09:05;17.10;99.90
5775;DHT22;2913;51.120;6.772;2023-07-02T02:11:32;17.00;99.90
5775;DHT22;2913;51.120;6.772;2023-07-02T02:13:58;16.90;99.90
5775;DHT22;2913;51.120;6.772;2023-07-02T02:16:27;16.80;99.90
5775;DHT22;2913;51.120;6.772;2023-07-02T02:18:56;16.90;99.90
5775;DHT22;2913;51.120;6.772;2023-07-02T02:21:22;16.80;99.90
5775;DHT22;2913;51.120;6.772;2023-07-02T02:23:50;16.90;99.90
5775;DHT22;2913;51.120;6.772;2023-07-02T02:26:15;16.80;99.90
5775;DHT22;2913;51.120;6.772;2023-07-02T02:28:44;16.70;99.90
5775;DHT22;2913;51.120;6.772;2023-07-02T02:31:09;16.80;99.90
5775;DHT22;2913;51.120;6.772;2023-07-02T02:33:35;16.70;99.90
5775;DHT22;2913;51.120;6.772;2023-07-02T02:36:02;16.80;99.90
5775;DHT22;2913;51.120;6.772;2023-07-02T02:38:27;16.70;99.90
5775;DHT22;2913;51.120;6.772;2023-07-02T02:40:53;16.70;99.90
5775;DHT22;2913;51.120;6.772;2023-07-02T02:43:18;16.70;99.90
5775;DHT22;2913;51.120;6.772;2023-07-02T02:45:46;16.70;99.90
5775;DHT22;2913;51.120;6.772;2023-07-02T02:48:11;16.70;99.90
5775;DHT22;2913;51.120;6.772;2023-07-02T02:50:42;16.70;99.90
5775;DHT22;2913;51.120;6.772;2023-07-02T02:53:08;16.70;99.90
5775;DHT22;2913;51.120;6.772;2023-07-02T02:55:35;16.60;99.90
5775;DHT22;2913;51.120;6.772;2023-07-02T02:58:03;16.70;99.90
5775;DHT22;2913;51.120;6.772;2023-07-02T03:00:31;16.60;99.90
5775;DHT22;2913;51.120;6.772;2023-07-02T03:02:58;16.60;99.90
5775;DHT22;2913;51.120;6.772;2023-07-02T03:05:28;16.50;99.90
5775;DHT22;2913;51.120;6.772;2023-07-02T03:07:56;16.60;99.90
5775;DHT22;2913;51.120;6.772;2023-07-02T03:10:21;16.60;99.90
5775;DHT22;2913;51.120;6.772;2023-07-02T03:12:48;16.50;99.90
5775;DHT22;2913;51.120;6.772;2023-07-02T03:15:13;16.50;99.90
5775;DHT22;2913;51.120;6.772;2023-07-02T03:17:41;16.50;99.90
5775;DHT22;2913;51.120;6.772;2023-07-02T03:20:07;16.50;99.90
5775;DHT22;2913;51.120;6.772;2023-07-02T03:22:33;16.50;99.90
5775;DHT22;2913;51.120;6.772;2023-07-02T03:25:00;16.50;99.90
5775;DHT22;2913;51.120;6.772;2023-07-02T03:27:25;16.60;99.90
5775;DHT22;2913;51.120;6.772;2023-07-02T03:29:52;16.60;99.90
5775;DHT22;2913;51.120;6.772;2023-07-02T03:32:18;16.50;99.90
5775;DHT22;2913;51.120;6.772;2023-07-02T03:34:43;16.60;99.90
5775;DHT22;2913;51.120;6.772;2023-07-02T03:37:09;16.50;99.90
5775;DHT22;2913;51.120;6.772;2023-07-02T03:39:34;16.60;99.90
5775;DHT22;2913;51.120;6.772;2023-07-02T03:42:00;16.60;99.90
5775;DHT22;2913;51.120;6.772;2023-07-02T03:44:26;16.60;99.90
5775;DHT22;2913;51.120;6.772;2023-07-02T03:46:56;16.60;99.90
5775;DHT22;2913;51.120;6.772;2023-07-02T03:49:23;16.60;99.90
5775;DHT22;2913;51.120;6.772;2023-07-02T03:51:49;16.60;99.90
5775;DHT22;2913;51.120;6.772;2023-07-02T03:54:15;16.70;99.90
5775;DHT22;2913;51.120;6.772;2023-07-02T03:56:41;16.70;99.90
5775;DHT22;2913;51.120;6.772;2023-07-02T03:59:09;16.70;99.90
5775;DHT22;2913;51.120;6.772;2023-07-02T04:01:34;16.70;99.90
5775;DHT22;2913;51.120;6.772;2023-07-02T04:04:02;16.70;99.90
5775;DHT22;2913;51.120;6.772;2023-07-02T04:06:30;16.70;99.90
5775;DHT22;2913;51.120;6.772;2023-07-02T04:08:56;16.70;99.90
5775;DHT22;2913;51.120;6.772;2023-07-02T04:11:22;16.70;99.90
5775;DHT22;2913;51.120;6.772;2023-07-02T04:13:47;16.70;99.90
5775;DHT22;2913;51.120;6.772;2023-07-02T04:16:13;16.70;99.90
5775;DHT22;2913;51.120;6.772;2023-07-02T04:18:41;16.80;99.90
5775;DHT22;2913;51.120;6.772;2023-07-02T04:21:06;16.80;99.90
5775;DHT22;2913;51.120;6.772;2023-07-02T04:23:32;16.80;99.90
5775;DHT22;2913;51.120;6.772;2023-07-02T04:25:57;16.80;99.90
5775;DHT22;2913;51.120;6.772;2023-07-02T04:28:23;16.80;99.90
5775;DHT22;2913;51.120;6.772;2023-07-02T04:30:51;16.80;99.90
5775;DHT22;2913;51.120;6.772;2023-07-02T04:33:18;16.80;99.90
5775;DHT22;2913;51.120;6.772;2023-07-02T04:35:44;16.90;99.90
5775;DHT22;2913;51.120;6.772;2023-07-02T04:38:12;17.10;99.90
5775;DHT22;2913;51.120;6.772;2023-07-02T04:40:40;17.10;99.90
5775;DHT22;2913;51.120;6.772;2023-07-02T04:43:07;17.10;99.90
5775;DHT22;2913;51.120;6.772;2023-07-02T04:45:35;17.10;99.90
5775;DHT22;2913;51.120;6.772;2023-07-02T04:48:04;17.10;99.90
5775;DHT22;2913;51.120;6.772;2023-07-02T04:50:31;17.10;99.90
5775;DHT22;2913;51.120;6.772;2023-07-02T04:52:57;17.20;99.90
5775;DHT22;2913;51.120;6.772;2023-07-02T04:55:27;17.30;99.90
5775;DHT22;2913;51.120;6.772;2023-07-02T04:57:55;17.80;99.90
5775;DHT22;2913;51.120;6.772;2023-07-02T05:00:21;17.80;99.90
5775;DHT22;2913;51.120;6.772;2023-07-02T05:02:47;17.90;99.90
5775;DHT22;2913;51.120;6.772;2023-07-02T05:05:13;17.80;99.90
5775;DHT22;2913;51.120;6.772;2023-07-02T05:07:40;17.70;99.90
5775;DHT22;2913;51.120;6.772;2023-07-02T05:10:09;17.70;99.90
5775;DHT22;2913;51.120;6.772;2023-07-02T05:12:37;17.70;99.90
5775;DHT22;2913;51.120;6.772;2023-07-02T05:15:03;17.70;99.90
5775;DHT22;2913;51.120;6.772;2023-07-02T05:17:28;17.60;99.90
5775;DHT22;2913;51.120;6.772;2023-07-02T05:19:54;17.60;99.90
5775;DHT22;2913;51.120;6.772;2023-07-02T05:22:20;17.70;99.90
5775;DHT22;2913;51.120;6.772;2023-07-02T05:24:45;17.60;99.90
5775;DHT22;2913;51.120;6.772;2023-07-02T05:27:11;17.90;99.90
5775;DHT22;2913;51.120;6.772;2023-07-02T05:29:39;17.90;99.90
5775;DHT22;2913;51.120;6.772;2023-07-02T05:32:08;18.30;99.90
5775;DHT22;2913;51.120;6.772;2023-07-02T05:34:33;18.40;99.90
5775;DHT22;2913;51.120;6.772;2023-07-02T05:36:59;18.90;99.90
5775;DHT22;2913;51.120;6.772;2023-07-02T05:39:24;18.60;99.90
5775;DHT22;2913;51.120;6.772;2023-07-02T05:41:50;18.60;99.90
5775;DHT22;2913;51.120;6.772;2023-07-02T05:44:16;18.60;99.90
5775;DHT22;2913;51.120;6.772;2023-07-02T05:46:42;18.60;99.90
5775;DHT22;2913;51.120;6.772;2023-07-02T05:49:08;18.80;99.90
5775;DHT22;2913;51.120;6.772;2023-07-02T05:51:36;19.10;99.90
5775;DHT22;2913;51.120;6.772;2023-07-02T05:54:01;19.40;99.90
5775;DHT22;2913;51.120;6.772;2023-07-02T05:56:27;19.80;99.90
5775;DHT22;2913;51.120;6.772;2023-07-02T05:58:52;20.00;99.90
5775;DHT22;2913;51.120;6.772;2023-07-02T06:01:20;19.80;99.90
5775;DHT22;2913;51.120;6.772;2023-07-02T06:03:49;19.60;99.90
5775;DHT22;2913;51.120;6.772;2023-07-02T06:06:15;19.40;99.90
5775;DHT22;2913;51.120;6.772;2023-07-02T06:08:41;19.20;99.90
5775;DHT22;2913;51.120;6.772;2023-07-02T06:11:09;19.50;99.90
5775;DHT22;2913;51.120;6.772;2023-07-02T06:13:35;19.50;99.90
5775;DHT22;2913;51.120;6.772;2023-07-02T06:16:03;19.30;99.90
5775;DHT22;2913;51.120;6.772;2023-07-02T06:18:31;19.40;99.90
5775;DHT22;2913;51.120;6.772;2023-07-02T06:20:57;19.40;99.90
5775;DHT22;2913;51.120;6.772;2023-07-02T06:23:25;19.90;99.90
5775;DHT22;2913;51.120;6.772;2023-07-02T06:25:51;19.90;99.90
5775;DHT22;2913;51.120;6.772;2023-07-02T06:28:18;20.00;99.90
5775;DHT22;2913;51.120;6.772;2023-07-02T06:30:46;19.90;99.90
5775;DHT22;2913;51.120;6.772;2023-07-02T06:33:11;19.80;99.90
5775;DHT22;2913;51.120;6.772;2023-07-02T06:35:37;19.90;99.90
5775;DHT22;2913;51.120;6.772;2023-07-02T06:38:05;19.90;99.90
5775;DHT22;2913;51.120;6.772;2023-07-02T06:40:30;20.20;99.90
5775;DHT22;2913;51.120;6.772;2023-07-02T06:43:04;20.00;99.90
5775;DHT22;2913;51.120;6.772;2023-07-02T06:45:30;20.30;99.90
5775;DHT22;2913;51.120;6.772;2023-07-02T06:47:55;20.40;99.90
5775;DHT22;2913;51.120;6.772;2023-07-02T06:50:23;20.30;99.90
5775;DHT22;2913;51.120;6.772;2023-07-02T06:52:49;20.70;99.90
5775;DHT22;2913;51.120;6.772;2023-07-02T06:55:17;20.60;99.90
5775;DHT22;2913;51.120;6.772;2023-07-02T06:57:43;20.50;99.90
5775;DHT22;2913;51.120;6.772;2023-07-02T07:00:17;21.00;99.90
5775;DHT22;2913;51.120;6.772;2023-07-02T07:05:11;21.10;99.90
5775;DHT22;2913;51.120;6.772;2023-07-02T07:07:37;21.20;99.90
5775;DHT22;2913;51.120;6.772;2023-07-02T07:10:06;21.50;99.90
5775;DHT22;2913;51.120;6.772;2023-07-02T07:12:32;21.50;99.90
5775;DHT22;2913;51.120;6.772;2023-07-02T07:14:57;21.70;99.90
5775;DHT22;2913;51.120;6.772;2023-07-02T07:17:23;21.90;99.90
5775;DHT22;2913;51.120;6.772;2023-07-02T07:19:48;21.70;99.90
5775;DHT22;2913;51.120;6.772;2023-07-02T07:22:14;21.70;99.90
5775;DHT22;2913;51.120;6.772;2023-07-02T07:24:41;21.70;99.90
5775;DHT22;2913;51.120;6.772;2023-07-02T07:27:07;22.10;99.90
5775;DHT22;2913;51.120;6.772;2023-07-02T07:29:33;21.90;99.90
5775;DHT22;2913;51.120;6.772;2023-07-02T07:31:59;22.10;99.90
5775;DHT22;2913;51.120;6.772;2023-07-02T07:34:24;22.40;99.90
5775;DHT22;2913;51.120;6.772;2023-07-02T07:36:53;22.70;99.90
5775;DHT22;2913;51.120;6.772;2023-07-02T07:39:20;22.60;98.30
5775;DHT22;2913;51.120;6.772;2023-07-02T07:41:47;22.40;97.80
5775;DHT22;2913;51.120;6.772;2023-07-02T07:44:15;22.20;95.50
5775;DHT22;2913;51.120;6.772;2023-07-02T07:46:40;22.10;95.80
5775;DHT22;2913;51.120;6.772;2023-07-02T07:49:06;22.00;96.60
5775;DHT22;2913;51.120;6.772;2023-07-02T07:51:34;21.90;97.10
5775;DHT22;2913;51.120;6.772;2023-07-02T07:54:02;21.80;97.50
5775;DHT22;2913;51.120;6.772;2023-07-02T07:56:27;21.80;96.40
5775;DHT22;2913;51.120;6.772;2023-07-02T07:58:53;21.80;96.50
5775;DHT22;2913;51.120;6.772;2023-07-02T08:01:18;21.80;96.90
5775;DHT22;2913;51.120;6.772;2023-07-02T08:03:44;21.90;97.00
5775;DHT22;2913;51.120;6.772;2023-07-02T08:06:10;21.80;96.60
5775;DHT22;2913;51.120;6.772;2023-07-02T08:08:38;21.60;96.80
5775;DHT22;2913;51.120;6.772;2023-07-02T08:11:09;21.80;98.00
5775;DHT22;2913;51.120;6.772;2023-07-02T08:13:34;21.90;96.80
5775;DHT22;2913;51.120;6.772;2023-07-02T08:16:03;21.90;97.10
5775;DHT22;2913;51.120;6.772;2023-07-02T08:18:28;22.10;96.70
5775;DHT22;2913;51.120;6.772;2023-07-02T08:20:54;21.90;96.00
5775;DHT22;2913;51.120;6.772;2023-07-02T08:23:22;22.10;95.80
5775;DHT22;2913;51.120;6.772;2023-07-02T08:25:50;21.80;96.10
5775;DHT22;2913;51.120;6.772;2023-07-02T08:28:15;22.00;95.80
5775;DHT22;2913;51.120;6.772;2023-07-02T08:30:43;22.10;95.90
5775;DHT22;2913;51.120;6.772;2023-07-02T08:33:09;22.30;95.10
5775;DHT22;2913;51.120;6.772;2023-07-02T08:35:34;22.30;95.30
5775;DHT22;2913;51.120;6.772;2023-07-02T08:38:01;22.20;94.60
5775;DHT22;2913;51.120;6.772;2023-07-02T08:40:26;22.20;95.10
5775;DHT22;2913;51.120;6.772;2023-07-02T08:42:54;22.10;95.20
5775;DHT22;2913;51.120;6.772;2023-07-02T08:45:23;21.80;95.60
5775;DHT22;2913;51.120;6.772;2023-07-02T08:47:49;21.60;96.50
5775;DHT22;2913;51.120;6.772;2023-07-02T08:50:18;21.60;96.80
5775;DHT22;2913;51.120;6.772;2023-07-02T08:52:44;21.50;96.50
5775;DHT22;2913;51.120;6.772;2023-07-02T08:55:13;21.40;96.70
5775;DHT22;2913;51.120;6.772;2023-07-02T08:57:46;21.60;95.80
5775;DHT22;2913;51.120;6.772;2023-07-02T09:00:15;21.60;96.30
5775;DHT22;2913;51.120;6.772;2023-07-02T09:02:40;21.70;95.70
5775;DHT22;2913;51.120;6.772;2023-07-02T09:05:06;21.70;96.20
5775;DHT22;2913;51.120;6.772;2023-07-02T09:07:45;21.70;96.60
5775;DHT22;2913;51.120;6.772;2023-07-02T09:10:30;21.70;96.20
5775;DHT22;2913;51.120;6.772;2023-07-02T09:13:05;21.30;97.10
5775;DHT22;2913;51.120;6.772;2023-07-02T09:15:43;21.30;98.00
5775;DHT22;2913;51.120;6.772;2023-07-02T09:18:22;21.10;97.30
5775;DHT22;2913;51.120;6.772;2023-07-02T09:20:53;20.90;97.80
5775;DHT22;2913;51.120;6.772;2023-07-02T09:23:21;20.90;98.40
5775;DHT22;2913;51.120;6.772;2023-07-02T09:25:47;20.90;99.20
5775;DHT22;2913;51.120;6.772;2023-07-02T09:28:19;21.00;99.90
5775;DHT22;2913;51.120;6.772;2023-07-02T09:30:56;21.10;99.90
5775;DHT22;2913;51.120;6.772;2023-07-02T09:33:30;21.20;99.90
5775;DHT22;2913;51.120;6.772;2023-07-02T09:35:56;21.20;99.90
5775;DHT22;2913;51.120;6.772;2023-07-02T09:38:25;21.30;99.90
5775;DHT22;2913;51.120;6.772;2023-07-02T09:40:52;21.60;99.90
5775;DHT22;2913;51.120;6.772;2023-07-02T09:43:21;21.60;99.70
5775;DHT22;2913;51.120;6.772;2023-07-02T09:45:49;21.50;99.90
5775;DHT22;2913;51.120;6.772;2023-07-02T09:48:18;21.40;99.50
5775;DHT22;2913;51.120;6.772;2023-07-02T09:50:47;21.10;99.90
5775;DHT22;2913;51.120;6.772;2023-07-02T09:53:15;21.10;99.90
5775;DHT22;2913;51.120;6.772;2023-07-02T09:55:44;20.90;99.90
5775;DHT22;2913;51.120;6.772;2023-07-02T09:58:10;20.90;99.90
5775;DHT22;2913;51.120;6.772;2023-07-02T10:00:42;21.00;99.90
5775;DHT22;2913;51.120;6.772;2023-07-02T10:03:07;21.30;99.90
5775;DHT22;2913;51.120;6.772;2023-07-02T10:05:33;21.50;99.90
5775;DHT22;2913;51.120;6.772;2023-07-02T10:08:13;21.70;99.90
5775;DHT22;2913;51.120;6.772;2023-07-02T10:10:39;22.30;99.90
5775;DHT22;2913;51.120;6.772;2023-07-02T10:13:05;22.40;98.10
5775;DHT22;2913;51.120;6.772;2023-07-02T10:15:31;22.40;98.30
5775;DHT22;2913;51.120;6.772;2023-07-02T10:17:58;22.40;99.30
5775;DHT22;2913;51.120;6.772;2023-07-02T10:20:35;22.30;98.80
5775;DHT22;2913;51.120;6.772;2023-07-02T10:23:05;22.20;98.00
5775;DHT22;2913;51.120;6.772;2023-07-02T10:25:37;22.20;98.30
5775;DHT22;2913;51.120;6.772;2023-07-02T10:28:19;22.00;97.60
5775;DHT22;2913;51.120;6.772;2023-07-02T10:30:46;21.80;97.40
5775;DHT22;2913;51.120;6.772;2023-07-02T10:33:16;21.70;98.40
5775;DHT22;2913;51.120;6.772;2023-07-02T10:35:47;21.60;97.10
5775;DHT22;2913;51.120;6.772;2023-07-02T10:38:22;21.80;96.90
5775;DHT22;2913;51.120;6.772;2023-07-02T10:40:59;21.80;97.10
5775;DHT22;2913;51.120;6.772;2023-07-02T10:43:26;21.70;96.50
5775;DHT22;2913;51.120;6.772;2023-07-02T10:45:56;21.70;96.60
5775;DHT22;2913;51.120;6.772;2023-07-02T10:48:24;21.50;95.80
5775;DHT22;2913;51.120;6.772;2023-07-02T10:50:50;21.30;96.70
5775;DHT22;2913;51.120;6.772;2023-07-02T10:53:19;21.20;96.60
5775;DHT22;2913;51.120;6.772;2023-07-02T10:55:44;21.10;96.80
5775;DHT22;2913;51.120;6.772;2023-07-02T10:58:12;21.00;95.80
5775;DHT22;2913;51.120;6.772;2023-07-02T11:00:47;21.20;95.70
5775;DHT22;2913;51.120;6.772;2023-07-02T11:03:20;21.50;95.30
5775;DHT22;2913;51.120;6.772;2023-07-02T11:05:46;21.90;95.80
5775;DHT22;2913;51.120;6.772;2023-07-02T11:08:14;21.90;94.80
5775;DHT22;2913;51.120;6.772;2023-07-02T11:10:43;22.10;94.80
5775;DHT22;2913;51.120;6.772;2023-07-02T11:13:18;22.00;94.30
5775;DHT22;2913;51.120;6.772;2023-07-02T11:15:44;22.00;93.70
5775;DHT22;2913;51.120;6.772;2023-07-02T11:18:17;21.80;93.40
5775;DHT22;2913;51.120;6.772;2023-07-02T11:20:43;21.80;93.90
5775;DHT22;2913;51.120;6.772;2023-07-02T11:23:23;21.60;94.60
5775;DHT22;2913;51.120;6.772;2023-07-02T11:25:59;21.50;94.80
5775;DHT22;2913;51.120;6.772;2023-07-02T11:28:25;21.30;94.60
5775;DHT22;2913;51.120;6.772;2023-07-02T11:30:54;21.30;93.70
5775;DHT22;2913;51.120;6.772;2023-07-02T11:36:01;21.30;92.70
5775;DHT22;2913;51.120;6.772;2023-07-02T11:38:26;21.40;92.10
5775;DHT22;2913;51.120;6.772;2023-07-02T11:40:57;21.50;91.90
5775;DHT22;2913;51.120;6.772;2023-07-02T11:43:22;21.60;91.00
5775;DHT22;2913;51.120;6.772;2023-07-02T11:45:53;22.00;90.60
5775;DHT22;2913;51.120;6.772;2023-07-02T11:50:45;22.70;88.30
5775;DHT22;2913;51.120;6.772;2023-07-02T11:53:10;22.60;85.00
5775;DHT22;2913;51.120;6.772;2023-07-02T11:55:39;22.70;85.30
5775;DHT22;2913;51.120;6.772;2023-07-02T11:58:04;22.60;83.40
5775;DHT22;2913;51.120;6.772;2023-07-02T12:00:30;22.50;84.00
5775;DHT22;2913;51.120;6.772;2023-07-02T12:02:58;22.30;83.70
5775;DHT22;2913;51.120;6.772;2023-07-02T12:05:26;22.40;85.00
5775;DHT22;2913;51.120;6.772;2023-07-02T12:07:54;22.80;86.20
5775;DHT22;2913;51.120;6.772;2023-07-02T12:10:20;23.10;83.60
5775;DHT22;2913;51.120;6.772;2023-07-02T12:12:47;23.40;80.60
5775;DHT22;2913;51.120;6.772;2023-07-02T12:15:13;23.60;78.60
5775;DHT22;2913;51.120;6.772;2023-07-02T12:17:38;23.60;75.80
5775;DHT22;2913;51.120;6.772;2023-07-02T12:20:06;23.50;74.00
5775;DHT22;2913;51.120;6.772;2023-07-02T12:22:32;23.60;73.40
5775;DHT22;2913;51.120;6.772;2023-07-02T12:25:00;23.90;74.60
5775;DHT22;2913;51.120;6.772;2023-07-02T12:27:26;24.10;74.40
5775;DHT22;2913;51.120;6.772;2023-07-02T12:29:52;24.00;72.00
5775;DHT22;2913;51.120;6.772;2023-07-02T12:32:18;24.10;72.00
5775;DHT22;2913;51.120;6.772;2023-07-02T12:34:46;24.10;71.60
5775;DHT22;2913;51.120;6.772;2023-07-02T12:37:11;24.10;70.30
5775;DHT22;2913;51.120;6.772;2023-07-02T12:39:42;24.20;70.40
5775;DHT22;2913;51.120;6.772;2023-07-02T12:42:08;23.90;71.10
5775;DHT22;2913;51.120;6.772;2023-07-02T12:44:36;23.80;70.60
5775;DHT22;2913;51.120;6.772;2023-07-02T12:47:04;23.80;71.20
5775;DHT22;2913;51.120;6.772;2023-07-02T12:49:29;23.90;72.10
5775;DHT22;2913;51.120;6.772;2023-07-02T12:51:57;24.10;72.40
5775;DHT22;2913;51.120;6.772;2023-07-02T12:54:23;24.40;71.90
5775;DHT22;2913;51.120;6.772;2023-07-02T12:56:51;24.50;72.30
5775;DHT22;2913;51.120;6.772;2023-07-02T12:59:17;24.50;71.90
5775;DHT22;2913;51.120;6.772;2023-07-02T13:01:44;24.40;71.50
5775;DHT22;2913;51.120;6.772;2023-07-02T13:04:10;24.40;71.20
5775;DHT22;2913;51.120;6.772;2023-07-02T13:06:37;24.30;70.50
5775;DHT22;2913;51.120;6.772;2023-07-02T13:09:06;24.20;70.40
5775;DHT22;2913;51.120;6.772;2023-07-02T13:11:34;24.20;71.10
5775;DHT22;2913;51.120;6.772;2023-07-02T13:14:02;24.30;71.70
5775;DHT22;2913;51.120;6.772;2023-07-02T13:16:28;23.90;71.60
5775;DHT22;2913;51.120;6.772;2023-07-02T13:18:58;23.80;71.80
5775;DHT22;2913;51.120;6.772;2023-07-02T13:21:26;23.70;72.30
5775;DHT22;2913;51.120;6.772;2023-07-02T13:23:54;23.20;72.50
5775;DHT22;2913;51.120;6.772;2023-07-02T13:26:22;23.70;73.70
5775;DHT22;2913;51.120;6.772;2023-07-02T13:28:50;23.90;74.80
5775;DHT22;2913;51.120;6.772;2023-07-02T13:31:16;23.90;73.90
5775;DHT22;2913;51.120;6.772;2023-07-02T13:33:46;23.90;73.30
5775;DHT22;2913;51.120;6.772;2023-07-02T13:36:12;23.80;73.90
5775;DHT22;2913;51.120;6.772;2023-07-02T13:38:40;23.80;75.50
5775;DHT22;2913;51.120;6.772;2023-07-02T13:41:10;23.70;74.00
5775;DHT22;2913;51.120;6.772;2023-07-02T13:43:38;23.60;75.80
5775;DHT22;2913;51.120;6.772;2023-07-02T13:46:06;23.50;74.70
5775;DHT22;2913;51.120;6.772;2023-07-02T13:48:32;23.40;75.20
5775;DHT22;2913;51.120;6.772;2023-07-02T13:50:58;23.50;75.50
5775;DHT22;2913;51.120;6.772;2023-07-02T13:53:23;23.50;76.30
5775;DHT22;2913;51.120;6.772;2023-07-02T13:55:49;23.60;76.50
5775;DHT22;2913;51.120;6.772;2023-07-02T13:58:15;23.70;76.20
5775;DHT22;2913;51.120;6.772;2023-07-02T14:00:40;23.70;76.60
5775;DHT22;2913;51.120;6.772;2023-07-02T14:03:08;23.70;76.30
5775;DHT22;2913;51.120;6.772;2023-07-02T14:05:34;23.90;76.00
5775;DHT22;2913;51.120;6.772;2023-07-02T14:07:59;23.90;76.40
5775;DHT22;2913;51.120;6.772;2023-07-02T14:10:27;23.90;77.00
5775;DHT22;2913;51.120;6.772;2023-07-02T14:12:56;23.60;76.40
5775;DHT22;2913;51.120;6.772;2023-07-02T14:15:21;23.60;77.00
5775;DHT22;2913;51.120;6.772;2023-07-02T14:17:51;23.70;76.60
5775;DHT22;2913;51.120;6.772;2023-07-02T14:20:19;23.70;77.20
5775;DHT22;2913;51.120;6.772;2023-07-02T14:22:45;23.80;78.80
5775;DHT22;2913;51.120;6.772;2023-07-02T14:25:10;23.80;77.40
5775;DHT22;2913;51.120;6.772;2023-07-02T14:27:38;23.70;77.10
5775;DHT22;2913;51.120;6.772;2023-07-02T14:30:05;23.60;77.00
5775;DHT22;2913;51.120;6.772;2023-07-02T14:32:34;23.50;76.90
5775;DHT22;2913;51.120;6.772;2023-07-02T14:35:02;23.40;76.90
5775;DHT22;2913;51.120;6.772;2023-07-02T14:37:27;23.60;77.10
5775;DHT22;2913;51.120;6.772;2023-07-02T14:39:58;23.80;76.60
5775;DHT22;2913;51.120;6.772;2023-07-02T14:42:25;24.00;75.60
5775;DHT22;2913;51.120;6.772;2023-07-02T14:44:53;24.30;75.80
5775;DHT22;2913;51.120;6.772;2023-07-02T14:47:21;24.30;75.30
5775;DHT22;2913;51.120;6.772;2023-07-02T14:49:47;24.40;74.50
5775;DHT22;2913;51.120;6.772;2023-07-02T14:52:15;24.30;74.50
5775;DHT22;2913;51.120;6.772;2023-07-02T14:54:40;24.40;75.20
5775;DHT22;2913;51.120;6.772;2023-07-02T14:57:06;24.50;74.30
5775;DHT22;2913;51.120;6.772;2023-07-02T14:59:34;24.50;73.00
5775;DHT22;2913;51.120;6.772;2023-07-02T15:02:02;24.30;73.90
5775;DHT22;2913;51.120;6.772;2023-07-02T15:04:30;24.30;74.10
5775;DHT22;2913;51.120;6.772;2023-07-02T15:06:56;24.10;74.60
5775;DHT22;2913;51.120;6.772;2023-07-02T15:09:23;24.10;73.90
5775;DHT22;2913;51.120;6.772;2023-07-02T15:11:49;24.00;74.30
5775;DHT22;2913;51.120;6.772;2023-07-02T15:14:15;24.00;75.00
5775;DHT22;2913;51.120;6.772;2023-07-02T15:16:40;23.90;74.80
5775;DHT22;2913;51.120;6.772;2023-07-02T15:19:06;24.10;75.50
5775;DHT22;2913;51.120;6.772;2023-07-02T15:21:34;24.30;75.00
5775;DHT22;2913;51.120;6.772;2023-07-02T15:24:02;24.30;74.10
5775;DHT22;2913;51.120;6.772;2023-07-02T15:26:27;24.10;73.80
5775;DHT22;2913;51.120;6.772;2023-07-02T15:28:55;23.90;74.70
5775;DHT22;2913;51.120;6.772;2023-07-02T15:31:21;23.90;74.60
5775;DHT22;2913;51.120;6.772;2023-07-02T15:33:47;24.00;75.00
5775;DHT22;2913;51.120;6.772;2023-07-02T15:36:17;24.00;75.00
5775;DHT22;2913;51.120;6.772;2023-07-02T15:38:45;24.10;75.40
5775;DHT22;2913;51.120;6.772;2023-07-02T15:41:17;23.90;74.20
5775;DHT22;2913;51.120;6.772;2023-07-02T15:43:49;23.90;74.50
5775;DHT22;2913;51.120;6.772;2023-07-02T15:46:20;23.90;74.90
5775;DHT22;2913;51.120;6.772;2023-07-02T15:48:46;23.90;74.70
5775;DHT22;2913;51.120;6.772;2023-07-02T15:51:12;23.70;75.00
5775;DHT22;2913;51.120;6.772;2023-07-02T15:53:40;23.80;75.30
5775;DHT22;2913;51.120;6.772;2023-07-02T15:56:07;23.90;74.70
5775;DHT22;2913;51.120;6.772;2023-07-02T15:58:33;23.90;74.60
5775;DHT22;2913;51.120;6.772;2023-07-02T16:01:16;24.00;75.10
5775;DHT22;2913;51.120;6.772;2023-07-02T16:03:43;24.00;74.70
5775;DHT22;2913;51.120;6.772;2023-07-02T16:06:13;24.20;74.90
5775;DHT22;2913;51.120;6.772;2023-07-02T16:08:38;24.20;75.50
5775;DHT22;2913;51.120;6.772;2023-07-02T16:11:08;24.10;74.40
5775;DHT22;2913;51.120;6.772;2023-07-02T16:13:36;24.10;74.30